Time;durP1;ratioP1;P1;durP2;ratioP2;P2;SDS_P1;SDS_P2;PMS_P1;PMS_P2;Temp;Humidity;BMP_temperature;BMP_pressure;BME280_temperature;BME280_humidity;BME280_pressure;Samples;Min_cycle;Max_cycle;Signal;HPM_P1;HPM_P2
2022/06/28 00:09:04;;;;;;;6.20;4.50;;;;;;;24.61;74.17;100442.94;739745;1153;116131;-72
2022/06/28 00:24:12;;;;;;;6.68;4.00;;;;;;;24.26;74.64;100441.67;739808;1155;115007;-72
2022/06/28 00:39:14;;;;;;;5.63;4.28;;;;;;;24.18;75.54;100455.37;739771;1155;115045;-71
2022/06/28 00:54:17;;;;;;;6.85;4.08;;;;;;;24.06;75.92;100463.31;739674;1153;115778;-72
2022/06/28 01:09:20;;;;;;;7.98;4.68;;;;;;;23.91;75.75;100465.50;739800;1155;115562;-72
2022/06/28 01:24:22;;;;;;;5.47;4.80;;;;;;;23.81;76.41;100457.94;739729;1155;115603;-72
2022/06/28 01:39:24;;;;;;;6.87;4.87;;;;;;;23.56;77.13;100453.38;739670;1155;115725;-72
2022/06/28 01:54:26;;;;;;;7.60;5.00;;;;;;;23.45;78.24;100458.62;739696;1155;115569;-72
2022/06/28 02:09:29;;;;;;;6.05;4.70;;;;;;;23.39;78.71;100465.66;739802;1154;114346;-71
2022/06/28 02:24:32;;;;;;;10.38;5.68;;;;;;;23.38;79.06;100469.37;739686;1154;115993;-72
2022/06/28 02:54:55;;;;;;;9.63;5.13;;;;;;;23.42;78.87;100489.31;739782;1155;115876;-72
2022/06/28 03:09:57;;;;;;;9.10;5.45;;;;;;;23.59;78.69;100487.74;739874;1153;114316;-72
2022/06/28 03:24:59;;;;;;;7.90;5.73;;;;;;;23.59;79.48;100466.33;740142;1153;114828;-74
2022/06/28 03:40:03;;;;;;;5.75;5.25;;;;;;;23.81;80.37;100473.17;740284;1155;114961;-72
2022/06/28 03:55:06;;;;;;;6.48;5.85;;;;;;;24.14;79.19;100477.45;740223;1155;115602;-72
2022/06/28 04:10:09;;;;;;;8.30;5.07;;;;;;;24.62;78.33;100452.63;740275;1155;114316;-75
2022/06/28 04:25:12;;;;;;;5.40;4.65;;;;;;;24.90;78.69;100446.75;740874;1155;115219;-79
2022/06/28 04:40:14;;;;;;;7.55;6.85;;;;;;;25.99;76.74;100442.22;741950;1153;114179;-83
2022/06/28 04:55:17;;;;;;;6.85;5.63;;;;;;;25.86;77.48;100429.02;743613;1155;114640;-85
2022/06/28 05:10:19;;;;;;;9.10;5.45;;;;;;;26.53;76.62;100433.19;742925;1155;114329;-88
2022/06/28 05:25:22;;;;;;;6.13;5.08;;;;;;;27.09;76.33;100429.97;743994;1155;115140;-89
2022/06/28 05:40:24;;;;;;;43.88;24.05;;;;;;;27.30;75.59;100415.80;742902;1154;114153;-90
2022/06/28 05:55:27;;;;;;;12.33;6.95;;;;;;;27.63;75.41;100403.42;742312;1153;115329;-85
2022/06/28 06:10:29;;;;;;;6.60;5.30;;;;;;;28.01;75.55;100403.72;742231;1155;114650;-90
2022/06/28 06:25:32;;;;;;;10.43;5.75;;;;;;;28.52;74.75;100425.14;740827;1155;115771;-72
2022/06/28 06:40:36;;;;;;;8.20;5.47;;;;;;;29.05;74.03;100409.29;740005;1155;115695;-81
2022/06/28 06:55:38;;;;;;;7.00;4.38;;;;;;;29.69;72.22;100424.70;740071;1153;115938;-78
2022/06/28 07:10:41;;;;;;;7.35;4.80;;;;;;;30.34;69.83;100437.25;740029;1154;115515;-76
2022/06/28 07:25:43;;;;;;;6.40;4.50;;;;;;;30.89;68.10;100459.39;739730;1155;114310;-77
2022/06/28 07:40:45;;;;;;;4.80;4.28;;;;;;;31.23;66.00;100468.98;740454;1153;114681;-77
2022/06/28 07:55:48;;;;;;;6.13;3.65;;;;;;;32.21;65.75;100460.81;740886;1153;116059;-69
2022/06/28 08:10:58;;;;;;;5.60;3.68;;;;;;;33.16;63.00;100467.94;740233;1155;115636;-72
2022/06/28 08:26:00;;;;;;;5.48;3.60;;;;;;;33.87;61.88;100477.77;739837;1155;115930;-71
2022/06/28 08:41:05;;;;;;;4.43;4.03;;;;;;;33.59;61.14;100472.81;740551;1155;115826;-70
2022/06/28 08:56:10;;;;;;;6.23;4.55;;;;;;;33.55;61.56;100482.64;740939;1155;115550;-74
2022/06/28 09:11:12;;;;;;;5.85;5.20;;;;;;;32.88;63.62;100487.70;740112;1154;115159;-78
2022/06/28 09:26:20;;;;;;;7.23;5.33;;;;;;;32.58;63.83;100475.86;740092;1155;114677;-76
2022/06/28 09:41:28;;;;;;;6.55;4.68;;;;;;;33.47;64.27;100459.59;740120;1155;115067;-75
2022/06/28 09:56:35;;;;;;;6.40;5.00;;;;;;;33.60;64.53;100444.53;740020;1152;114420;-78
2022/06/28 10:27:14;;;;;;;6.60;6.00;;;;;;;33.96;64.83;100460.52;740775;1155;114915;-76
2022/06/28 10:42:16;;;;;;;6.88;6.23;;;;;;;33.16;66.11;100470.66;739936;1155;115202;-75
2022/06/28 10:57:23;;;;;;;7.60;6.35;;;;;;;31.51;68.81;100528.05;740574;1153;115779;-77
2022/06/28 11:12:29;;;;;;;9.60;7.25;;;;;;;31.89;68.79;100540.59;740452;1155;115246;-78
2022/06/28 11:27:33;;;;;;;;;;;;;;;30.85;72.34;100550.36;741664;1153;114902;-77
2022/06/28 11:42:35;;;;;;;10.38;8.08;;;;;;;30.38;72.06;100558.22;739869;1153;100604;-78
2022/06/28 11:57:39;;;;;;;9.63;8.65;;;;;;;29.65;73.80;100572.20;739724;1155;115713;-77
2022/06/28 12:12:42;;;;;;;9.85;8.68;;;;;;;29.76;74.41;100583.95;740125;1153;115603;-78
2022/06/28 12:27:45;;;;;;;11.93;10.53;;;;;;;29.17;79.18;100584.66;740097;1153;114985;-80
2022/06/28 12:42:47;;;;;;;15.20;11.10;;;;;;;28.45;83.52;100597.97;739957;1153;114584;-78
2022/06/28 12:57:50;;;;;;;12.35;11.05;;;;;;;28.64;86.25;100597.70;740109;1155;115808;-77
2022/06/28 13:12:53;;;;;;;12.58;10.43;;;;;;;28.33;84.52;100629.63;739771;1153;115433;-82
2022/06/28 13:27:55;;;;;;;12.28;8.70;;;;;;;27.65;85.47;100651.04;740316;1155;116000;-75
2022/06/28 13:42:58;;;;;;;8.23;7.03;;;;;;;27.58;89.11;100640.41;739569;1155;115534;-76
2022/06/28 13:58:04;;;;;;;6.13;5.35;;;;;;;27.77;87.04;100632.13;741455;1155;114338;-81
2022/06/28 14:13:08;;;;;;;7.20;6.50;;;;;;;27.59;87.89;100641.25;743378;1154;114808;-82
2022/06/28 14:28:11;;;;;;;12.15;10.53;;;;;;;27.28;90.94;100633.35;743175;1154;114854;-81
2022/06/28 14:43:13;;;;;;;13.98;12.50;;;;;;;26.99;93.43;100640.52;742653;1155;115553;-82
2022/06/28 14:58:16;;;;;;;15.63;12.17;;;;;;;27.81;95.22;100671.05;742684;1154;114699;-82
2022/06/28 15:13:19;;;;;;;13.37;11.97;;;;;;;28.62;92.95;100664.60;743423;1155;116089;-83
2022/06/28 15:43:43;;;;;;;13.80;12.00;;;;;;;28.70;93.94;100653.41;740408;1153;114655;-80
2022/06/28 15:58:46;;;;;;;9.00;8.10;;;;;;;27.27;96.63;100665.91;740360;1154;114945;-79
2022/06/28 16:13:49;;;;;;;10.08;7.18;;;;;;;26.45;97.16;100654.05;739867;1155;128975;-80
2022/06/28 16:28:52;;;;;;;15.65;8.13;;;;;;;26.19;98.00;100653.45;740271;1153;115632;-80
2022/06/28 16:43:54;;;;;;;10.33;8.45;;;;;;;25.65;100.00;100662.20;740518;1155;115141;-79
2022/06/28 16:58:57;;;;;;;23.07;20.77;;;;;;;25.46;100.00;100671.33;740723;1155;114956;-79
2022/06/28 17:13:59;;;;;;;33.68;18.83;;;;;;;25.32;100.00;100698.30;741330;1155;115377;-78
2022/06/28 17:29:02;;;;;;;8.93;7.35;;;;;;;24.90;99.29;100700.78;740373;1153;114852;-78
2022/06/28 17:44:04;;;;;;;7.43;6.25;;;;;;;24.83;100.00;100708.08;740449;1155;115540;-77
2022/06/28 17:59:07;;;;;;;8.83;5.80;;;;;;;24.41;100.00;100728.17;740732;1153;114891;-75
2022/06/28 18:14:10;;;;;;;5.18;4.68;;;;;;;24.38;100.00;100727.77;741131;1155;115901;-75
2022/06/28 18:29:13;;;;;;;8.78;6.05;;;;;;;24.33;100.00;100781.20;741785;1153;115196;-75
2022/06/28 18:44:17;;;;;;;18.93;8.33;;;;;;;24.14;99.78;100762.34;741118;1154;115475;-74
2022/06/28 18:59:20;;;;;;;18.65;9.20;;;;;;;23.98;100.00;100768.16;740631;1155;115851;-75
2022/06/28 19:14:29;;;;;;;6.68;4.58;;;;;;;23.86;100.00;100792.08;740598;1155;115494;-74
2022/06/28 19:29:36;;;;;;;6.53;4.58;;;;;;;23.80;100.00;100819.73;740660;1155;115121;-73
2022/06/28 19:44:38;;;;;;;10.47;5.23;;;;;;;23.90;100.00;100812.92;743617;1155;115358;-74
2022/06/28 19:59:43;;;;;;;4.90;4.40;;;;;;;23.85;100.00;100801.17;740258;1154;115959;-74
2022/06/28 20:14:46;;;;;;;5.67;4.57;;;;;;;23.78;100.00;100782.42;741371;1155;116043;-74
2022/06/28 20:29:50;;;;;;;7.73;6.28;;;;;;;23.48;100.00;100779.41;740647;1155;115888;-73
2022/06/28 20:44:58;;;;;;;10.43;6.73;;;;;;;23.16;100.00;100760.51;740215;1153;115884;-73
2022/06/28 21:00:01;;;;;;;13.53;7.15;;;;;;;22.73;100.00;100709.05;741223;1153;114615;-73
2022/06/28 21:15:06;;;;;;;6.73;4.23;;;;;;;22.66;100.00;100723.44;740878;1162;23114;-73
2022/06/28 21:30:09;;;;;;;6.10;4.20;;;;;;;22.54;100.00;100744.61;740893;1153;115009;-73
2022/06/28 21:45:12;;;;;;;6.50;4.88;;;;;;;22.48;100.00;100759.61;744168;1155;115711;-74
2022/06/28 22:00:34;;;;;;;8.90;4.60;;;;;;;22.28;100.00;100764.89;740505;1155;114573;-73
2022/06/28 22:15:37;;;;;;;4.60;3.85;;;;;;;22.04;100.00;100777.75;741314;1155;115947;-74
2022/06/28 22:30:40;;;;;;;4.25;3.85;;;;;;;21.84;100.00;100785.67;741901;1155;115833;-72
2022/06/28 22:45:42;;;;;;;4.58;3.90;;;;;;;21.82;100.00;100762.86;740597;1153;115664;-72
2022/06/28 23:00:44;;;;;;;8.77;4.03;;;;;;;21.82;100.00;100774.35;740935;1155;115025;-74
2022/06/28 23:15:46;;;;;;;7.40;4.03;;;;;;;21.84;100.00;100776.82;741306;1153;115707;-74
2022/06/28 23:30:49;;;;;;;6.90;4.05;;;;;;;21.88;100.00;100789.59;740456;1155;115005;-73
2022/06/28 23:45:52;;;;;;;4.57;3.70;;;;;;;21.87;100.00;100789.80;739892;1153;115399;-73
